Time;durP1;ratioP1;P1;durP2;ratioP2;P2;SDS_P1;SDS_P2;PMS_P1;PMS_P2;Temp;Humidity;BMP_temperature;BMP_pressure;BME280_temperature;BME280_humidity;BME280_pressure;Samples;Min_cycle;Max_cycle;Signal;HPM_P1;HPM_P2
2022/01/26 00:06:38;;;;;;;;;38.20;26.80;;;;;2.10;73.86;102839.16;5053005;28;45450;-61
2022/01/26 00:09:04;;;;;;;;;41.60;29.40;;;;;2.13;74.01;102833.53;5052406;28;46640;-61
2022/01/26 00:11:33;;;;;;;;;35.20;29.80;;;;;1.99;73.68;102805.53;5052512;28;45388;-61
2022/01/26 00:13:59;;;;;;;;;27.80;24.40;;;;;2.13;74.00;102833.53;5051130;28;45497;-59
2022/01/26 00:16:27;;;;;;;;;40.00;35.00;;;;;2.12;73.05;102838.06;5052570;28;45593;-60
2022/01/26 00:19:00;;;;;;;;;32.60;29.80;;;;;2.11;73.25;102830.03;5050686;28;45490;-59
2022/01/26 00:21:30;;;;;;;;;37.60;32.00;;;;;2.08;73.02;102839.25;5049723;28;45487;-61
2022/01/26 00:29:13;;;;;;;;;35.20;30.20;;;;;2.09;73.33;102837.41;5051947;28;45723;-61
2022/01/26 00:40:15;;;;;;;;;39.75;30.50;;;;;1.82;73.17;102797.69;5052960;28;45856;-61
2022/01/26 00:42:43;;;;;;;;;42.00;34.20;;;;;2.07;73.21;102848.34;5054345;28;45464;-66
2022/01/26 00:45:08;;;;;;;;;42.60;34.60;;;;;2.03;73.71;102850.41;5055310;28;45400;-61
2022/01/26 00:47:34;;;;;;;;;47.25;33.00;;;;;2.03;73.76;102847.69;5056387;28;45503;-63
2022/01/26 00:50:06;;;;;;;;;40.75;30.50;;;;;2.00;73.83;102842.50;5055663;28;46161;-59
2022/01/26 00:52:43;;;;;;;;;40.00;36.40;;;;;2.11;73.23;102858.00;5056461;28;45313;-58
2022/01/26 00:55:10;;;;;;;;;43.80;33.20;;;;;1.77;73.91;102784.47;5056602;28;45357;-58
2022/01/26 00:57:36;;;;;;;;;37.75;31.75;;;;;2.01;73.75;102817.13;5055471;28;45337;-57
2022/01/26 01:00:05;;;;;;;;;40.25;29.75;;;;;2.22;73.92;102842.84;5056495;28;46833;-58
2022/01/26 01:02:32;;;;;;;;;23.00;17.00;;;;;2.14;73.15;102849.66;5055029;28;45378;-60
2022/01/26 01:05:00;;;;;;;;;33.60;28.00;;;;;2.17;73.26;102851.31;5055256;28;45301;-60
2022/01/26 01:07:26;;;;;;;;;39.00;28.75;;;;;1.98;73.30;102813.75;5056873;28;45551;-61
2022/01/26 01:09:51;;;;;;;;;45.50;33.75;;;;;2.08;73.18;102833.81;5054939;28;45617;-60
2022/01/26 01:12:17;;;;;;;;;40.00;28.75;;;;;2.10;73.05;102848.16;5056226;28;45491;-60
2022/01/26 01:14:44;;;;;;;;;43.25;25.75;;;;;2.05;73.41;102833.16;5056394;28;45681;-58
2022/01/26 01:17:20;;;;;;;;;40.25;35.00;;;;;2.07;73.12;102844.78;5055245;28;45365;-59
2022/01/26 01:20:03;;;;;;;;;34.20;26.80;;;;;2.13;72.98;102834.38;5056260;28;45413;-58
2022/01/26 01:30:25;;;;;;;;;47.20;34.80;;;;;2.19;72.91;102843.06;5035675;28;46589;-59
2022/01/26 01:33:04;;;;;;;;;39.60;34.20;;;;;2.15;72.79;102837.84;5036206;28;45420;-61
2022/01/26 01:35:31;;;;;;;;;34.40;26.60;;;;;1.94;72.67;102801.38;5035022;28;45299;-59
2022/01/26 01:37:58;;;;;;;;;37.00;32.50;;;;;2.25;73.00;102854.34;5048239;28;45702;-60
2022/01/26 01:40:24;;;;;;;;;29.00;27.80;;;;;2.26;72.44;102847.09;5055782;28;45871;-58
2022/01/26 01:42:49;;;;;;;;;41.75;35.75;;;;;2.20;72.71;102840.28;5055670;28;45353;-60
2022/01/26 01:45:15;;;;;;;;;46.75;35.50;;;;;2.15;73.17;102837.84;5055881;28;45381;-59
2022/01/26 01:47:40;;;;;;;;;40.00;27.50;;;;;2.24;72.87;102835.50;5056035;28;45679;-59
2022/01/26 01:50:12;;;;;;;;;41.25;32.25;;;;;2.20;73.01;102837.56;5055380;28;46548;-59
2022/01/26 01:52:37;;;;;;;;;49.80;38.20;;;;;2.33;72.65;102852.97;5054083;28;45466;-59
2022/01/26 01:55:04;;;;;;;;;36.75;29.25;;;;;2.34;72.62;102855.56;5055481;28;45360;-59
2022/01/26 01:57:30;;;;;;;;;31.75;31.50;;;;;2.29;72.32;102861.31;5055802;28;45247;-59
2022/01/26 01:59:56;;;;;;;;;34.00;27.25;;;;;2.30;72.26;102864.91;5053199;28;47777;-59
2022/01/26 02:02:21;;;;;;;;;38.25;30.25;;;;;2.30;72.38;102857.63;5055749;28;45352;-60
2022/01/26 02:04:47;;;;;;;;;38.75;28.50;;;;;2.33;71.98;102856.53;5055440;28;45365;-58
2022/01/26 02:07:12;;;;;;;;;38.25;31.50;;;;;2.31;72.01;102861.22;5055331;28;45290;-59
2022/01/26 02:09:38;;;;;;;;;35.50;32.50;;;;;2.23;72.64;102850.88;5055387;28;45956;-56
2022/01/26 02:12:12;;;;;;;;;32.00;29.50;;;;;2.01;72.22;102822.56;5054887;28;45318;-61
2022/01/26 02:14:42;;;;;;;;;27.20;17.20;;;;;2.23;71.91;102864.44;5055598;28;45387;-58
2022/01/26 02:17:28;;;;;;;;;41.40;38.80;;;;;2.24;72.62;102855.31;5054922;28;45423;-58
2022/01/26 02:20:27;;;;;;;;;35.00;30.20;;;;;2.25;72.53;102867.03;5054997;28;45467;-59
2022/01/26 03:01:12;;;;;;;;;28.60;23.00;;;;;2.21;70.92;102833.88;5055055;28;45357;-58
2022/01/26 03:03:30;;;;;;;;;32.40;24.40;;;;;1.98;71.05;102811.91;5053619;28;46860;-58
2022/01/26 03:06:02;;;;;;;;;36.80;27.80;;;;;2.21;71.33;102846.53;5054550;28;45476;-59
2022/01/26 03:08:36;;;;;;;;;37.20;28.80;;;;;2.01;71.11;102821.66;5054474;28;45380;-59
2022/01/26 03:11:08;;;;;;;;;32.20;22.40;;;;;2.20;70.94;102844.81;5054888;28;45467;-59
2022/01/26 03:13:36;;;;;;;;;25.60;24.20;;;;;2.14;71.22;102833.41;5058042;28;45988;-59
2022/01/26 03:16:18;;;;;;;;;32.40;24.00;;;;;2.18;70.67;102834.06;5056666;28;45392;-60
2022/01/26 03:19:48;;;;;;;;;29.20;26.60;;;;;2.00;70.72;102812.69;5056573;28;45421;-61
2022/01/26 03:21:49;;;;;;;;;25.20;22.80;;;;;2.15;71.02;102842.41;5044288;28;45340;-57
2022/01/26 03:35:19;;;;;;;;;32.20;17.40;;;;;2.26;71.03;102841.69;5057558;28;46250;-54
2022/01/26 03:37:54;;;;;;;;;30.00;27.20;;;;;2.07;71.17;102801.44;5057130;28;45704;-62
2022/01/26 03:40:28;;;;;;;;;30.80;26.80;;;;;2.12;71.46;102796.53;5057792;28;45388;-59
2022/01/26 03:42:53;;;;;;;;;36.40;30.20;;;;;2.32;70.85;102825.00;5057666;28;45415;-58
2022/01/26 03:45:19;;;;;;;;;34.00;29.00;;;;;2.34;70.67;102819.47;5057629;28;46723;-62
2022/01/26 03:47:44;;;;;;;;;36.25;33.25;;;;;2.35;71.46;102829.34;5057140;28;45301;-58
2022/01/26 03:50:10;;;;;;;;;38.75;29.75;;;;;2.36;71.60;102825.66;5057333;28;47216;-57
2022/01/26 03:52:36;;;;;;;;;33.25;29.75;;;;;2.38;71.30;102821.88;5056071;28;45459;-57
2022/01/26 03:55:02;;;;;;;;;32.25;26.75;;;;;2.41;71.67;102837.91;5056953;28;45685;-60
2022/01/26 03:57:28;;;;;;;;;34.20;28.60;;;;;2.41;71.27;102826.22;5055765;28;45250;-60
2022/01/26 03:59:53;;;;;;;;;41.00;32.00;;;;;2.49;71.23;102839.19;5057334;28;45454;-59
2022/01/26 04:02:19;;;;;;;;;33.00;27.00;;;;;2.49;70.84;102840.09;5057349;28;45371;-60
2022/01/26 04:04:50;;;;;;;;;39.75;29.25;;;;;2.52;70.78;102829.00;5055423;28;46062;-64
2022/01/26 04:07:15;;;;;;;;;34.80;26.80;;;;;2.43;70.49;102829.66;5057186;28;45573;-58
2022/01/26 04:09:41;;;;;;;;;40.00;29.25;;;;;2.44;71.16;102825.97;5057003;28;45361;-60
2022/01/26 04:12:07;;;;;;;;;42.75;35.25;;;;;2.45;70.85;102833.13;5057008;28;45358;-61
2022/01/26 04:14:34;;;;;;;;;36.60;29.40;;;;;2.38;70.97;102802.00;5056768;28;45747;-60
2022/01/26 04:17:00;;;;;;;;;42.20;36.00;;;;;2.56;71.03;102822.41;5034311;28;45364;-59
2022/01/26 04:19:28;;;;;;;;;36.25;32.25;;;;;2.60;70.91;102819.50;5054666;28;45379;-57
2022/01/26 04:22:09;;;;;;;;;36.00;35.25;;;;;2.60;70.85;102812.22;5053924;28;45299;-57
2022/01/26 04:24:44;;;;;;;;;44.00;34.40;;;;;2.60;70.53;102800.53;5056684;28;46205;-58
2022/01/26 04:29:38;;;;;;;;;42.00;35.40;;;;;2.62;70.13;102822.97;5056823;28;45680;-60
2022/01/26 04:32:05;;;;;;;;;44.50;39.75;;;;;2.62;70.23;102812.97;5056407;28;45607;-59
2022/01/26 04:34:32;;;;;;;;;53.00;41.25;;;;;2.67;70.26;102818.94;5056576;28;46510;-59
2022/01/26 04:37:26;;;;;;;;;58.60;46.00;;;;;2.71;70.36;102817.75;5055029;28;45489;-60
2022/01/26 04:40:01;;;;;;;;;55.60;42.00;;;;;2.57;70.23;102783.47;5056366;28;45390;-60
2022/01/26 04:42:49;;;;;;;;;48.25;42.25;;;;;2.78;69.83;102812.75;5055521;28;45423;-59
2022/01/26 04:45:14;;;;;;;;;43.25;40.00;;;;;2.78;70.17;102812.75;5056496;28;45553;-60
2022/01/26 04:47:40;;;;;;;;;51.75;39.75;;;;;2.82;69.77;102808.84;5056571;28;45869;-59
2022/01/26 04:50:07;;;;;;;;;50.25;41.25;;;;;2.75;69.11;102802.13;5056219;28;45302;-56
2022/01/26 04:52:32;;;;;;;;;46.00;38.25;;;;;2.77;69.43;102811.03;5056680;28;45709;-58
2022/01/26 04:55:00;;;;;;;;;57.25;45.25;;;;;2.78;69.34;102811.91;5071916;28;47340;-58
2022/01/26 04:57:26;;;;;;;;;58.20;46.20;;;;;2.78;69.23;102812.75;5056343;28;45351;-58
2022/01/26 04:59:51;;;;;;;;;50.00;41.50;;;;;2.77;69.24;102821.88;5056801;28;45301;-55
2022/01/26 05:02:17;;;;;;;;;44.00;33.50;;;;;2.77;69.27;102816.44;5056547;28;45361;-60
2022/01/26 05:04:43;;;;;;;;;55.25;45.00;;;;;2.76;68.88;102806.56;5056419;28;46249;-61
2022/01/26 05:07:08;;;;;;;;;47.00;39.00;;;;;2.71;68.80;102806.03;5056092;28;45401;-59
2022/01/26 05:09:34;;;;;;;;;47.50;40.00;;;;;2.75;68.80;102814.81;5056290;28;45331;-58
2022/01/26 05:12:01;;;;;;;;;56.00;40.75;;;;;2.78;69.26;102811.91;5056562;28;45842;-61
2022/01/26 05:14:27;;;;;;;;;47.50;38.25;;;;;2.75;68.84;102812.09;5055963;28;46503;-57
2022/01/26 05:16:52;;;;;;;;;46.75;41.75;;;;;2.62;69.17;102774.16;5041869;28;45823;-60
2022/01/26 05:19:18;;;;;;;;;42.00;42.00;;;;;2.73;69.99;102776.09;5033382;28;45370;-59
2022/01/26 05:21:43;;;;;;;;;54.25;45.75;;;;;2.88;69.40;102806.69;5024831;28;45563;-59
2022/01/26 05:24:10;;;;;;;;;34.25;27.25;;;;;2.86;68.32;102814.91;5035897;28;45599;-59
2022/01/26 05:26:39;;;;;;;;;51.00;42.60;;;;;2.80;69.00;102799.97;5051689;28;45607;-58
2022/01/26 05:29:05;;;;;;;;;48.80;40.40;;;;;2.89;68.98;102806.59;5036049;28;45401;-60
2022/01/26 05:31:30;;;;;;;;;54.00;46.00;;;;;2.92;68.70;102802.75;5056019;28;45323;-59
2022/01/26 05:33:56;;;;;;;;;44.25;32.75;;;;;2.89;68.11;102805.69;5054028;28;45525;-54
2022/01/26 05:36:21;;;;;;;;;55.50;42.75;;;;;2.88;67.76;102799.41;5055778;28;45317;-57
2022/01/26 05:38:47;;;;;;;;;49.25;42.00;;;;;2.90;68.48;102797.47;5054786;28;45396;-56
2022/01/26 05:41:13;;;;;;;;;42.25;39.50;;;;;2.73;68.24;102763.41;5054681;28;45680;-54
2022/01/26 05:43:38;;;;;;;;;39.75;36.25;;;;;2.88;68.41;102776.84;5055738;28;45835;-58
2022/01/26 05:46:12;;;;;;;;;53.25;42.50;;;;;2.76;68.19;102759.59;5055845;28;45330;-58
2022/01/26 05:48:43;;;;;;;;;52.25;43.00;;;;;2.90;68.01;102781.19;5055701;28;45427;-59
2022/01/26 05:51:10;;;;;;;;;49.50;37.50;;;;;2.86;68.17;102795.94;5055718;28;45464;-55
2022/01/26 05:53:35;;;;;;;;;52.50;42.50;;;;;2.88;68.24;102790.41;5053528;28;47790;-59
2022/01/26 05:56:01;;;;;;;;;63.75;43.00;;;;;2.88;68.07;102795.84;5053979;28;45327;-59
2022/01/26 05:58:27;;;;;;;;;60.60;43.60;;;;;2.62;67.61;102750.59;5055603;28;45673;-56
2022/01/26 06:00:53;;;;;;;;;56.75;45.25;;;;;2.90;67.91;102785.72;5037612;28;45383;-59
2022/01/26 06:03:18;;;;;;;;;56.50;45.00;;;;;2.89;68.09;102789.44;5055331;28;45489;-57
2022/01/26 06:05:43;;;;;;;;;47.50;30.50;;;;;2.73;68.16;102766.13;5054897;28;45358;-55
2022/01/26 06:08:09;;;;;;;;;53.50;43.25;;;;;2.88;67.71;102798.53;5054046;28;45355;-58
2022/01/26 06:10:34;;;;;;;;;48.75;38.50;;;;;2.89;67.92;102798.44;5055452;28;45260;-60
2022/01/26 06:13:00;;;;;;;;;47.75;39.00;;;;;2.92;68.05;102802.75;5054941;28;46846;-57
2022/01/26 06:15:26;;;;;;;;;49.50;45.25;;;;;2.73;68.03;102768.84;5055009;28;45445;-58
2022/01/26 06:17:51;;;;;;;;;48.25;44.00;;;;;2.93;68.02;102804.50;5053642;28;45408;-57
2022/01/26 06:20:17;;;;;;;;;51.00;46.00;;;;;2.92;67.76;102809.06;5055465;28;45387;-57
2022/01/26 06:22:42;;;;;;;;;63.00;46.75;;;;;2.95;68.07;102816.13;5054869;28;45553;-59
2022/01/26 06:25:08;;;;;;;;;57.50;47.75;;;;;2.90;67.49;102807.44;5055136;28;45360;-56
2022/01/26 06:27:35;;;;;;;;;58.50;46.50;;;;;2.93;68.32;102829.78;5053760;28;45467;-57
2022/01/26 06:30:02;;;;;;;;;63.50;47.00;;;;;2.98;68.16;102834.88;5053943;28;45321;-53
2022/01/26 06:32:28;;;;;;;;;72.25;55.25;;;;;2.93;67.79;102839.78;5054638;28;46825;-54
2022/01/26 06:34:54;;;;;;;;;64.25;45.00;;;;;2.59;68.01;102788.78;5054756;28;45390;-58
2022/01/26 06:37:19;;;;;;;;;53.00;46.00;;;;;2.93;67.88;102851.47;5055302;28;45390;-59
2022/01/26 06:39:45;;;;;;;;;65.00;45.25;;;;;2.93;67.91;102853.34;5053843;28;45546;-59
2022/01/26 06:42:14;;;;;;;;;57.50;46.25;;;;;2.96;68.44;102856.72;5054517;28;46117;-58
2022/01/26 06:44:53;;;;;;;;;54.75;44.75;;;;;2.96;67.82;102864.84;5054702;28;45537;-58
2022/01/26 06:49:47;;;;;;;;;58.25;43.75;;;;;2.94;68.16;102863.22;5053457;28;45741;-60
2022/01/26 06:52:12;;;;;;;;;59.75;41.00;;;;;2.87;67.80;102873.63;5054778;28;46893;-54
2022/01/26 06:54:38;;;;;;;;;70.25;51.50;;;;;2.87;68.50;102883.63;5054778;28;45326;-57
2022/01/26 06:57:03;;;;;;;;;80.00;60.75;;;;;2.88;68.14;102877.22;5026696;28;45831;-58
2022/01/26 06:59:29;;;;;;;;;55.50;44.00;;;;;2.90;68.45;102872.53;5049501;28;45549;-58
2022/01/26 07:01:55;;;;;;;;;52.25;45.25;;;;;2.91;68.37;102867.00;5054177;28;45492;-62
2022/01/26 07:04:20;;;;;;;;;56.75;48.00;;;;;2.89;68.17;102874.41;5054505;28;45499;-57
2022/01/26 07:06:46;;;;;;;;;55.50;42.25;;;;;2.63;68.19;102831.00;5054754;28;45273;-55
2022/01/26 07:09:11;;;;;;;;;66.25;46.50;;;;;2.90;68.59;102867.09;5054908;28;45352;-60
2022/01/26 07:11:37;;;;;;;;;55.00;48.75;;;;;2.96;68.16;102864.84;5054629;28;46645;-61
2022/01/26 07:14:07;;;;;;;;;59.50;47.50;;;;;2.75;68.29;102831.09;5052913;28;45326;-58
2022/01/26 07:22:01;;;;;;;;;57.25;45.00;;;;;2.90;68.45;102865.28;5054476;28;45553;-55
2022/01/26 07:24:26;;;;;;;;;69.50;49.75;;;;;2.92;68.42;102867.84;5054349;28;45350;-59
2022/01/26 07:26:54;;;;;;;;;71.25;48.25;;;;;2.72;68.51;102824.03;5054773;28;45420;-57
2022/01/26 07:29:22;;;;;;;;;56.50;42.75;;;;;2.92;68.48;102848.88;5053267;28;45363;-59
2022/01/26 07:31:48;;;;;;;;;63.25;47.25;;;;;2.79;68.59;102828.06;5034040;28;45959;-57
2022/01/26 07:34:14;;;;;;;;;58.50;47.25;;;;;2.73;68.64;102825.78;5032745;28;45335;-59
2022/01/26 07:36:46;;;;;;;;;66.00;51.75;;;;;2.99;68.59;102874.63;5034534;28;45275;-60
2022/01/26 07:39:16;;;;;;;;;64.75;50.00;;;;;3.00;68.75;102873.63;5066489;28;45582;-55
2022/01/26 07:41:41;;;;;;;;;60.75;49.50;;;;;3.00;68.48;102876.34;5033889;28;45972;-59
2022/01/26 07:44:07;;;;;;;;;65.50;46.75;;;;;3.04;68.83;102883.28;5033984;28;45278;-56
2022/01/26 07:46:32;;;;;;;;;58.75;47.25;;;;;3.01;68.44;102866.34;5033296;28;45315;-58
2022/01/26 07:48:58;;;;;;;;;51.00;41.50;;;;;3.03;68.15;102869.84;5066888;28;45513;-59
2022/01/26 07:51:23;;;;;;;;;60.50;45.50;;;;;3.06;68.70;102881.34;5033573;28;46197;-57
2022/01/26 07:53:49;;;;;;;;;64.25;50.00;;;;;3.08;68.90;102889.34;5033893;28;45520;-59
2022/01/26 07:56:15;;;;;;;;;68.00;50.50;;;;;3.13;68.79;102889.03;5034093;28;45380;-56
2022/01/26 07:58:41;;;;;;;;;65.00;46.50;;;;;3.16;68.49;102883.38;5036650;28;45769;-53
2022/01/26 08:01:07;;;;;;;;;67.25;53.50;;;;;2.95;68.81;102849.50;5035998;28;45810;-64
2022/01/26 08:03:33;;;;;;;;;64.00;47.75;;;;;3.19;68.59;102885.84;5037434;28;45456;-57
2022/01/26 08:06:05;;;;;;;;;63.25;50.00;;;;;3.14;68.59;102877.22;5037534;28;45401;-59
2022/01/26 08:08:31;;;;;;;;;65.75;51.25;;;;;3.23;68.66;102893.69;5035878;28;45465;-59
2022/01/26 08:10:57;;;;;;;;;65.25;46.25;;;;;3.21;68.19;102889.34;5037412;28;45409;-57
2022/01/26 08:13:23;;;;;;;;;56.00;45.60;;;;;3.12;67.97;102882.72;5037127;28;45352;-56
2022/01/26 08:15:48;;;;;;;;;52.50;40.50;;;;;3.11;68.14;102873.72;5037165;28;45321;-56
2022/01/26 08:18:14;;;;;;;;;52.50;44.75;;;;;3.08;67.90;102865.81;5037255;28;45237;-59
2022/01/26 08:20:42;;;;;;;;;58.25;47.00;;;;;3.14;68.06;102858.22;5036920;28;45481;-59
2022/01/26 08:23:08;;;;;;;;;65.20;42.20;;;;;3.15;67.77;102873.50;5036772;28;45437;-59
2022/01/26 08:25:33;;;;;;;;;48.75;42.00;;;;;3.12;68.01;102861.03;5035640;28;45337;-59
2022/01/26 08:28:08;;;;;;;;;50.50;41.25;;;;;3.16;68.55;102867.09;5035848;28;45481;-57
2022/01/26 08:30:38;;;;;;;;;52.25;43.00;;;;;3.20;67.97;102855.91;5046282;28;45446;-59
2022/01/26 08:33:05;;;;;;;;;64.20;46.20;;;;;3.23;67.75;102855.69;5056518;28;45235;-58
2022/01/26 08:35:30;;;;;;;;;60.25;46.25;;;;;3.22;67.89;102847.66;5055787;28;45405;-56
2022/01/26 08:37:56;;;;;;;;;62.75;50.00;;;;;3.29;67.90;102862.50;5056934;28;45381;-57
2022/01/26 08:40:21;;;;;;;;;67.25;50.75;;;;;3.17;68.04;102852.53;5055159;28;46562;-60
2022/01/26 08:42:47;;;;;;;;;56.00;42.25;;;;;3.31;67.93;102856.97;5056406;28;45491;-57
2022/01/26 08:45:14;;;;;;;;;63.50;49.25;;;;;3.31;68.19;102846.97;5025191;28;45425;-58
2022/01/26 08:47:39;;;;;;;;;57.25;47.00;;;;;3.36;68.14;102863.81;5056906;28;45463;-60
2022/01/26 08:50:05;;;;;;;;;62.75;46.25;;;;;3.35;67.56;102869.34;5056131;28;45376;-59
2022/01/26 08:52:31;;;;;;;;;57.80;44.60;;;;;3.40;67.65;102878.00;5054783;28;45464;-57
2022/01/26 08:54:57;;;;;;;;;61.75;49.25;;;;;3.39;67.53;102882.59;5056338;28;45283;-59
2022/01/26 08:57:22;;;;;;;;;69.25;52.75;;;;;3.41;67.62;102881.63;5056286;28;45322;-58
2022/01/26 08:59:48;;;;;;;;;68.50;51.25;;;;;3.40;67.69;102880.72;5054466;28;47877;-56
2022/01/26 09:02:13;;;;;;;;;66.00;50.00;;;;;3.42;67.91;102886.06;5056445;28;45308;-57
2022/01/26 09:04:39;;;;;;;;;63.50;47.75;;;;;3.41;67.29;102884.31;5056190;28;45249;-59
2022/01/26 09:07:04;;;;;;;;;68.25;53.50;;;;;3.44;67.69;102884.09;5056347;28;45580;-58
2022/01/26 09:09:33;;;;;;;;;64.50;52.25;;;;;3.44;67.99;102894.94;5055711;28;45684;-58
2022/01/26 09:12:06;;;;;;;;;65.80;47.40;;;;;3.41;67.70;102879.75;5055837;28;45412;-59
2022/01/26 09:14:32;;;;;;;;;66.50;48.50;;;;;3.42;67.56;102875.19;5054958;28;45506;-53
2022/01/26 09:16:58;;;;;;;;;70.50;50.75;;;;;3.48;67.10;102891.03;5054763;28;45393;-57
2022/01/26 09:19:27;;;;;;;;;66.50;44.00;;;;;3.26;67.69;102870.91;5055875;28;46371;-57
2022/01/26 09:21:57;;;;;;;;;62.00;48.75;;;;;3.31;67.22;102881.41;5055441;28;45329;-58
2022/01/26 09:24:27;;;;;;;;;70.25;50.75;;;;;3.48;67.85;102910.91;5054755;28;45476;-57
2022/01/26 09:26:53;;;;;;;;;63.50;46.75;;;;;3.51;67.59;102918.84;5056058;28;45898;-56
2022/01/26 09:29:18;;;;;;;;;65.25;48.00;;;;;3.33;67.54;102888.47;5055907;28;45250;-58
2022/01/26 09:31:47;;;;;;;;;60.00;48.50;;;;;3.32;67.63;102881.31;5055507;28;45275;-59
2022/01/26 09:34:15;;;;;;;;;67.75;49.25;;;;;3.46;67.74;102910.16;5054591;28;45399;-55
2022/01/26 09:36:40;;;;;;;;;66.00;47.00;;;;;3.56;67.94;102925.78;5039741;28;46117;-54
2022/01/26 09:39:06;;;;;;;;;61.50;45.50;;;;;3.58;67.99;102921.97;5053325;28;45607;-56
2022/01/26 09:41:32;;;;;;;;;56.25;46.75;;;;;3.56;68.07;102923.94;5054838;28;45646;-55
2022/01/26 09:43:59;;;;;;;;;61.50;47.50;;;;;3.55;67.59;102905.03;5053179;28;45420;-57
2022/01/26 09:46:24;;;;;;;;;62.25;48.25;;;;;3.57;67.42;102920.22;5055407;28;45566;-51
2022/01/26 09:48:50;;;;;;;;;63.50;47.25;;;;;3.54;67.75;102912.31;5027358;28;46146;-51
2022/01/26 09:51:19;;;;;;;;;69.00;51.00;;;;;3.59;67.81;102929.16;5036947;28;45321;-58
2022/01/26 09:53:44;;;;;;;;;54.25;45.00;;;;;3.58;67.97;102937.41;5024320;28;45980;-57
2022/01/26 09:56:10;;;;;;;;;72.50;53.50;;;;;3.59;67.79;102942.72;5016705;28;45861;-60
2022/01/26 09:58:36;;;;;;;;;56.25;44.75;;;;;3.55;67.80;102943.03;5050896;28;47291;-58
2022/01/26 10:01:04;;;;;;;;;74.50;55.50;;;;;3.62;68.43;102939.78;5049431;28;45467;-59
2022/01/26 10:03:34;;;;;;;;;61.75;45.50;;;;;3.64;68.00;102942.41;5065717;28;45549;-63
2022/01/26 10:06:00;;;;;;;;;59.00;45.00;;;;;3.55;67.79;102930.34;5048551;28;45921;-60
2022/01/26 10:19:03;;;;;;;;;59.00;45.25;;;;;3.65;67.95;102930.53;5051018;28;45453;-58
2022/01/26 10:21:29;;;;;;;;;58.60;46.20;;;;;3.73;67.73;102951.72;5050151;28;45729;-60
2022/01/26 10:23:54;;;;;;;;;61.00;45.50;;;;;3.74;67.56;102945.31;5049625;28;45380;-56
2022/01/26 10:26:20;;;;;;;;;70.50;45.50;;;;;3.65;67.60;102931.44;5032767;28;45401;-55
2022/01/26 10:28:56;;;;;;;;;41.00;36.50;;;;;3.74;67.93;102943.44;5049801;28;46808;-56
2022/01/26 10:31:30;;;;;;;;;32.40;28.20;;;;;3.58;68.13;102913.81;5050571;28;45379;-57
2022/01/26 10:33:58;;;;;;;;;51.40;42.60;;;;;3.39;68.01;102887.16;5051087;28;45539;-59
2022/01/26 10:36:37;;;;;;;;;54.50;44.50;;;;;3.75;68.83;102928.03;5051195;28;45535;-61
2022/01/26 10:39:13;;;;;;;;;48.75;42.25;;;;;3.82;68.40;102921.16;5033147;28;45582;-58
2022/01/26 10:41:40;;;;;;;;;61.60;45.00;;;;;3.80;68.65;102909.53;5049193;28;45500;-58
2022/01/26 10:44:06;;;;;;;;;55.60;42.00;;;;;3.71;68.16;102905.66;5049350;28;45480;-55
2022/01/26 10:46:38;;;;;;;;;58.75;45.00;;;;;3.88;68.68;102947.88;5050889;28;45396;-57
2022/01/26 10:54:17;;;;;;;;;58.80;43.20;;;;;3.91;68.69;102927.75;5054738;28;45489;-52
2022/01/26 10:56:43;;;;;;;;;50.00;42.25;;;;;3.93;68.93;102923.06;5052953;28;45417;-54
2022/01/26 10:59:09;;;;;;;;;61.75;44.50;;;;;3.94;69.31;102930.22;5036078;28;46538;-51
2022/01/26 11:01:35;;;;;;;;;54.25;43.50;;;;;3.74;68.39;102882.81;5054386;28;45722;-57
2022/01/26 11:04:00;;;;;;;;;60.00;42.20;;;;;3.68;69.06;102873.25;5054773;28;45382;-56
2022/01/26 11:06:26;;;;;;;;;55.00;43.75;;;;;4.03;68.74;102928.69;5054778;28;45612;-56
2022/01/26 11:08:51;;;;;;;;;61.00;42.00;;;;;4.03;68.50;102921.41;5053169;28;45468;-54
2022/01/26 11:11:18;;;;;;;;;59.50;49.00;;;;;4.06;69.07;102907.56;5070194;28;45480;-53
2022/01/26 11:13:44;;;;;;;;;50.80;42.00;;;;;3.73;69.38;102853.94;5069561;28;45432;-52
2022/01/26 11:16:12;;;;;;;;;55.75;43.50;;;;;3.78;68.82;102866.19;5049216;28;45555;-56
2022/01/26 11:18:50;;;;;;;;;52.00;41.60;;;;;4.08;69.52;102907.47;5053457;28;46380;-56
2022/01/26 11:21:34;;;;;;;;;55.80;44.80;;;;;4.10;68.50;102908.22;5035839;28;45461;-58
2022/01/26 11:24:16;;;;;;;;;58.20;47.00;;;;;4.16;68.71;102899.59;5050909;28;45463;-53
2022/01/26 11:26:44;;;;;;;;;68.25;47.00;;;;;4.17;69.11;102895.03;5032110;28;45360;-55
2022/01/26 11:29:24;;;;;;;;;58.20;42.60;;;;;4.18;68.14;102889.47;5033518;28;45639;-53
2022/01/26 11:32:23;;;;;;;;;68.00;47.60;;;;;4.22;68.43;102889.25;5049522;28;45435;-55
2022/01/26 11:34:50;;;;;;;;;45.00;37.00;;;;;4.30;68.49;102879.53;5056707;28;45337;-56
2022/01/26 11:37:19;;;;;;;;;67.50;46.25;;;;;4.28;68.76;102894.22;5054904;28;45617;-56
2022/01/26 11:45:34;;;;;;;;;61.80;46.20;;;;;4.26;68.43;102872.56;5040064;28;45489;-58
2022/01/26 11:48:03;;;;;;;;;60.50;45.75;;;;;4.26;68.25;102869.84;5056490;28;45502;-53
2022/01/26 11:50:29;;;;;;;;;60.75;48.25;;;;;4.29;68.81;102871.47;5056667;28;45829;-56
2022/01/26 11:53:04;;;;;;;;;55.00;42.20;;;;;4.27;68.71;102857.16;5039083;28;46503;-58
2022/01/26 11:55:40;;;;;;;;;49.80;37.40;;;;;4.15;69.00;102823.59;5053577;28;45423;-57
2022/01/26 11:58:17;;;;;;;;;41.60;37.60;;;;;4.30;67.77;102844.19;5025660;28;46424;-56
2022/01/26 12:00:52;;;;;;;;;50.80;41.40;;;;;4.28;68.01;102843.41;5057144;28;45816;-56
2022/01/26 12:03:32;;;;;;;;;53.20;39.80;;;;;4.28;68.45;102840.69;5057571;28;45387;-54
2022/01/26 12:05:59;;;;;;;;;61.75;45.75;;;;;4.31;69.06;102840.47;5055935;28;45373;-54
2022/01/26 12:08:30;;;;;;;;;53.75;44.25;;;;;4.31;69.25;102829.59;5057200;28;45302;-56
2022/01/26 12:10:56;;;;;;;;;54.75;41.75;;;;;4.31;69.22;102836.88;5056784;28;45421;-57
2022/01/26 12:13:28;;;;;;;;;46.50;40.50;;;;;4.29;69.23;102825.25;5053332;28;45308;-59
2022/01/26 12:15:57;;;;;;;;;47.60;42.80;;;;;4.35;69.05;102832.94;5045882;28;45543;-61
2022/01/26 12:32:41;;;;;;;;;49.20;37.60;;;;;4.40;68.52;102838.91;5052635;28;45487;-62
2022/01/26 12:38:08;;;;;;;;;49.60;43.40;;;;;4.41;68.73;102824.31;5052780;28;45411;-59
2022/01/26 12:43:48;;;;;;;;;44.80;41.20;;;;;4.37;68.86;102833.69;5051908;28;45475;-58
2022/01/26 12:46:25;;;;;;;;;41.20;37.40;;;;;4.23;68.30;102813.03;5050759;28;45922;-61
2022/01/26 12:48:56;;;;;;;;;62.60;42.40;;;;;4.37;69.10;102847.28;5051554;28;45346;-59
2022/01/26 12:51:22;;;;;;;;;58.20;43.20;;;;;4.37;68.00;102836.41;5050759;28;45818;-60
2022/01/26 12:53:56;;;;;;;;;41.50;38.75;;;;;4.37;68.54;102844.56;5049675;28;45468;-63
2022/01/26 12:56:27;;;;;;;;;71.25;52.75;;;;;4.40;68.80;102841.63;5051500;28;45408;-60
2022/01/26 12:59:03;;;;;;;;;51.75;45.50;;;;;4.43;68.42;102844.06;4996792;28;45780;-58
2022/01/26 13:01:29;;;;;;;;;43.25;40.00;;;;;4.42;68.32;102831.47;5032466;28;45776;-57
2022/01/26 13:03:59;;;;;;;;;44.25;35.75;;;;;4.25;68.61;102791.13;5031956;28;46094;-59
2022/01/26 13:06:27;;;;;;;;;56.40;40.60;;;;;4.48;68.00;102828.28;5029321;28;45709;-59
2022/01/26 13:08:57;;;;;;;;;57.80;44.20;;;;;4.48;67.94;102824.69;5032049;28;45620;-57
2022/01/26 13:11:30;;;;;;;;;62.75;47.25;;;;;4.46;68.71;102819.38;5031949;28;45611;-59
2022/01/26 13:14:02;;;;;;;;;51.40;38.00;;;;;4.42;68.65;102814.28;5030547;28;45506;-59
2022/01/26 13:16:35;;;;;;;;;63.80;43.60;;;;;4.45;68.35;102804.06;5029940;28;45540;-60
2022/01/26 13:19:15;;;;;;;;;55.80;41.00;;;;;4.47;68.39;102806.63;5031818;28;45390;-57
2022/01/26 13:22:02;;;;;;;;;60.25;42.50;;;;;4.48;68.94;102803.81;5031918;28;46133;-54
2022/01/26 13:29:58;;;;;;;;;60.20;44.60;;;;;4.45;68.32;102804.06;5030540;28;45359;-56
2022/01/26 13:37:52;;;;;;;;;56.00;40.60;;;;;4.56;68.51;102805.03;5031003;28;45405;-56
2022/01/26 13:43:40;;;;;;;;;54.60;41.20;;;;;4.53;68.51;102811.59;5010477;28;45494;-60
2022/01/26 13:51:10;;;;;;;;;55.60;39.80;;;;;4.54;68.55;102804.31;5011118;28;45483;-58